Scotchtown, New York
Current Conditions -  °F | °C
As of 1:54 PM on Friday 21 Nov 2014 (Local Time) from KMGJ Reporting Station
Few Clouds Few Clouds  
Wind Chill: 23°   Ceiling: Unl
Heat Index: 33°   Visibility: 10mi
Dew Point: 10°   Wind: 14mph
Humidity: 38%   Direction: 330°NNW
Pressure: 30.29"   Gusts: 22mph
Location:  41.45°N, 74.41°W
Report Text: KMGJ 211854Z AUTO 33012G19KT 10SM FEW060 01/M12 A3029 RMK AO2 SLP262 T00061122 PWINO FZRANO TSNO
Loading
Personal Weather Stations






























Interactive Weather Map New forecast layout! Learn more

10-Day Weather Forecast

Advertisements
Track Severe Weather on mobile